Portada
METAR-TAF:

METAR-TAF

Aeropuertos :

Wallis, Francia

Aeropuerto de Hihifo

latitud: 13-14S, longitud: 176-10W, altitud: 23 m

METAR: falta

Hora: 18:03 (06:03 UTC)

Pronóstico

El informe se hizo hace 1 hora y 3 minutos, a las 05:00 UTC
Pronóstico válido del 17 a las 06 UTC al 18 a las 06 UTC
Viento 7 kt del norte
Visibilidad 10 km o más
Escasas nubes a una altura de 2000 ft
Nubes dispersas a una altura de 3000 ft
Evolucionando progresivamente
del 17 a las 12 UTC al 17 a las 15 UTC
Viento 10 kt del sur-sureste
Evolucionando progresivamente
del 17 a las 21 UTC al 17 a las 23 UTC
Viento 10 kt del este
Temporalmente
del 17 a las 06 UTC al 17 a las 18 UTC
Escasas nubes a una altura de 1500 ft, Cumulus congestus.
chaparrones de lluvia

TAF: NLWW 170500Z 1706/1806 35007KT 9999 FEW020 SCT030 BECMG 1712/1715 16010KT BECMG 1721/1723 09010KT TEMPO 1706/1718 SHRA FEW015TCU

Observaciones y pronósticos meteorológicos de más de 4000 aeropuertos (mensajes METAR y TAF).

Los puntos amarillos y rojos representan las estaciones disponibles.

Ponga el ratón en el punto deseado para ver el nombre de la estación.

Haga clic para ver las observaciones y los pronósticos meteorológicos.

Para cambiar el mapa : haga clic en los botones verdes con una cruz de color negro para hacer un zoom, en el botón verde con un guión para alejar o en las flechas verdes para mapas adyacentes.


METAR-TAF: